Latest Weather Observations for Applethorpe

IDN60801

Issued at 1:02 pm EST Saturday 30 April 2016 (issued every 30 minutes, with the page automatically refreshed every 10 minutes)

About weather observations | Map of weather stations | Latest weather observations for NSW | Other Formats
Station Details ID: 041175 Name: APPLETHORPE Lat: -28.62 Lon: 151.95 Height: 871.6 m
Data from the previous 72 hours. | See also: Recent months at Applethorpe
Date/Time
EST
Temp
°C
App
Temp
°C
Dew
Point
Rel
Hum
%
Delta-T
°C
Wind Press
QNH
hPa
Press
MSL
hPa
Rain
since 9 am
mm
Dir
 
Spd
km/h
Gust
km/h
Spd
kts
Gust
kts
30/01:00pm 22.6 22.7 13.8 57 5.3 NNE 6 13 3 7 1022.3 1019.6 0.0
30/12:30pm 22.9 22.9 14.2 58 5.3 NNE 7 15 4 8 1022.7 1020.0 0.0
30/12:00pm 21.9 21.8 13.9 60 4.8 N 7 15 4 8 1023.1 1020.4 0.0
30/11:30am 21.9 21.9 14.1 61 4.7 NNW 7 11 4 6 1023.6 1020.9 0.0
30/11:00am 21.7 21.8 14.5 63 4.4 N 7 13 4 7 1024.1 1021.4 0.0
30/10:30am 20.8 20.8 15.1 70 3.5 NNE 9 17 5 9 1024.7 1022.0 0.0
30/10:00am 21.2 21.2 15.3 69 3.6 NE 9 15 5 8 1025.0 1022.3 0.0
30/09:30am 19.6 20.1 15.5 77 2.5 NE 7 11 4 6 1025.0 1022.3 0.0
30/09:00am 18.0 18.1 15.4 85 1.6 NNE 9 15 5 8 1025.2 1022.5 0.0
30/08:30am 16.6 17.2 15.3 92 0.8 NE 6 9 3 5 1025.3 1022.7 0.0
30/08:00am 15.6 16.9 15.1 97 0.3 NE 2 6 1 3 1025.1 1022.4 0.0
30/07:30am 14.3 15.2 14.1 99 0.1 ENE 2 6 1 3 1024.9 1022.2 0.0
30/07:00am 12.9 13.7 12.7 99 0.1 CALM 0 2 0 1 1024.6 1021.9 0.0
30/06:30am 13.2 14.1 13.0 99 0.1 CALM 0 0 0 0 1024.3 1021.7 0.0
30/06:00am 12.7 13.1 12.5 99 0.1 NE 2 6 1 3 1023.9 1021.2 0.0
30/05:30am 12.4 12.7 12.2 99 0.1 ENE 2 4 1 2 1023.7 1021.0 0.0
30/05:00am 12.6 12.7 12.6 100 0.0 NE 4 6 2 3 1023.6 1020.9 0.0
30/04:30am 12.1 12.3 11.9 99 0.1 NNE 2 4 1 2 1023.6 1020.9 0.0
30/04:00am 12.6 13.4 12.4 99 0.1 CALM 0 0 0 0 1023.8 1021.1 0.0
30/03:30am 13.3 13.8 12.9 97 0.2 NE 2 4 1 2 1023.5 1020.8 0.0
30/03:00am 13.8 14.9 13.6 99 0.1 CALM 0 4 0 2 1023.5 1020.8 0.0
30/02:30am 14.1 14.5 13.8 98 0.2 NE 4 6 2 3 1023.7 1021.0 0.0
30/02:00am 14.4 14.9 14.1 98 0.2 ENE 4 9 2 5 1023.8 1021.1 0.0
30/01:30am 14.7 15.3 14.2 97 0.3 ENE 4 9 2 5 1024.1 1021.4 0.0
30/01:00am 14.8 15.3 14.1 96 0.4 ENE 4 7 2 4 1024.3 1021.7 0.0
30/12:30am 14.9 15.1 14.2 96 0.4 ENE 6 7 3 4 1024.7 1022.0 0.0
30/12:00am 15.0 15.2 14.3 96 0.4 ENE 6 9 3 5 1024.8 1022.1 0.0
 
Date/Time
EST
Temp
°C
App
Temp
°C
Dew
Point
Rel
Hum
%
Delta-T
°C
Wind Press
QNH
hPa
Press
MSL
hPa
Rain
since 9 am
mm
Dir
 
Spd
km/h
Gust
km/h
Spd
kts
Gust
kts
29/11:30pm 15.1 15.4 14.4 96 0.4 ENE 6 11 3 6 1025.0 1022.3 0.0
29/11:00pm 15.3 15.6 14.6 96 0.4 NE 6 9 3 5 1025.3 1022.7 0.0
29/10:30pm 15.1 15.8 14.6 97 0.3 NE 4 7 2 4 1025.6 1023.0 0.0
29/10:00pm 14.9 15.5 14.2 96 0.4 ENE 4 6 2 3 1025.7 1023.1 0.0
29/09:30pm 14.9 15.2 14.4 97 0.3 NE 6 9 3 5 1025.6 1023.0 0.0
29/09:00pm 15.0 15.2 14.3 96 0.4 NE 6 7 3 4 1025.3 1022.7 0.0
29/08:30pm 15.0 16.0 14.3 96 0.4 NE 2 6 1 3 1025.4 1022.8 0.0
29/08:00pm 15.4 16.1 14.6 95 0.5 ENE 4 6 2 3 1025.3 1022.7 0.0
29/07:30pm 16.0 16.8 14.8 93 0.7 ENE 4 7 2 4 1025.2 1022.5 0.0
29/07:00pm 16.6 17.1 14.9 90 1.0 ENE 6 11 3 6 1024.8 1022.1 0.0
29/06:30pm 17.0 17.3 15.0 88 1.2 ENE 7 17 4 9 1024.7 1022.0 0.0
29/06:00pm 17.0 17.2 14.3 84 1.6 ENE 6 11 3 6 1024.3 1021.7 0.0
29/05:30pm 17.5 17.7 14.3 81 1.9 ENE 6 9 3 5 1024.0 1021.3 0.0
29/05:00pm 18.4 18.2 13.5 73 2.9 ENE 7 13 4 7 1023.6 1020.9 0.0
29/04:30pm 19.0 18.8 13.6 71 3.2 ENE 7 13 4 7 1023.5 1020.8 0.0
29/04:00pm 19.8 19.5 13.4 66 3.8 ENE 7 19 4 10 1023.4 1020.7 0.0
29/03:30pm 20.7 19.8 13.7 64 4.2 ENE 11 20 6 11 1023.1 1020.4 0.0
29/03:00pm 21.0 20.4 13.4 62 4.5 ENE 9 20 5 11 1023.1 1020.4 0.0
29/02:30pm 22.1 21.6 12.6 55 5.6 ENE 7 15 4 8 1023.1 1020.4 0.0
29/02:00pm 22.5 21.6 12.7 54 5.8 ENE 9 19 5 10 1023.2 1020.6 0.0
29/01:30pm 22.1 21.6 12.8 55 5.5 NE 7 13 4 7 1023.5 1020.8 0.0
29/01:00pm 22.1 21.6 12.6 55 5.6 ENE 7 11 4 6 1023.8 1021.1 0.0
29/12:30pm 21.7 21.1 12.3 55 5.5 NE 7 15 4 8 1024.4 1021.8 0.0
29/12:00pm 21.6 21.1 12.6 56 5.3 ENE 7 17 4 9 1024.9 1022.2 0.0
29/11:30am 20.9 19.9 12.3 58 5.0 ENE 9 15 5 8 1025.4 1022.8 0.0
29/11:00am 20.3 19.9 13.0 63 4.3 ENE 7 15 4 8 1026.1 1023.4 0.0
29/10:30am 19.3 18.9 13.0 67 3.7 NE 7 15 4 8 1026.6 1024.0 0.0
29/10:00am 18.0 16.7 12.5 70 3.2 ENE 11 17 6 9 1027.1 1024.4 0.0
29/09:30am 18.5 17.7 13.0 70 3.2 ENE 9 15 5 8 1027.3 1024.6 0.0
29/09:00am 17.4 16.5 12.5 73 2.8 ENE 9 15 5 8 1027.3 1024.6 0.0
29/08:30am 15.5 14.9 12.3 81 1.8 ENE 7 15 4 8 1027.3 1024.6 0.0
29/08:00am 14.5 14.0 12.7 89 1.0 ENE 7 17 4 9 1026.9 1024.3 0.0
29/07:30am 13.4 12.9 12.5 94 0.5 ENE 7 17 4 9 1026.8 1024.2 0.0
29/07:00am 13.0 12.6 12.5 97 0.3 NE 6 9 3 5 1026.6 1024.0 0.0
29/06:30am 12.7 12.3 12.3 97 0.2 ENE 6 9 3 5 1026.3 1023.7 0.0
29/06:00am 12.2 11.6 11.8 97 0.2 ENE 6 9 3 5 1026.0 1023.3 0.0
29/05:30am 12.3 12.5 11.9 97 0.2 ENE 2 9 1 5 1026.2 1023.5 0.0
29/05:00am 11.9 12.0 11.4 97 0.3 E 2 4 1 2 1026.0 1023.3 0.0
29/04:30am 12.6 12.5 12.1 97 0.3 ENE 4 7 2 4 1025.5 1022.9 0.0
29/04:00am 12.8 12.8 12.3 97 0.3 ENE 4 7 2 4 1025.3 1022.7 0.0
29/03:30am 13.3 13.4 12.8 97 0.3 ENE 4 7 2 4 1025.3 1022.7 0.0
29/03:00am 12.7 12.6 12.2 97 0.3 NE 4 7 2 4 1025.4 1022.8 0.0
29/02:30am 12.5 12.4 12.1 97 0.2 NE 4 6 2 3 1025.4 1022.8 0.0
29/02:00am 12.0 12.1 11.6 97 0.2 ENE 2 4 1 2 1026.0 1023.3 0.0
29/01:30am 12.3 12.1 11.8 97 0.3 E 4 6 2 3 1026.2 1023.5 0.0
29/01:00am 12.7 12.6 12.2 97 0.3 ENE 4 6 2 3 1026.4 1023.8 0.0
29/12:30am 13.5 13.2 12.6 94 0.5 E 6 13 3 7 1026.4 1023.8 0.0
29/12:00am 14.0 13.8 12.9 93 0.6 E 6 9 3 5 1026.4 1023.8 0.0
 
Date/Time
EST
Temp
°C
App
Temp
°C
Dew
Point
Rel
Hum
%
Delta-T
°C
Wind Press
QNH
hPa
Press
MSL
hPa
Rain
since 9 am
mm
Dir
 
Spd
km/h
Gust
km/h
Spd
kts
Gust
kts
28/11:30pm 14.6 14.6 13.6 94 0.6 ENE 6 19 3 10 1026.7 1024.1 0.0
28/11:00pm 14.7 14.7 13.7 94 0.6 ENE 6 9 3 5 1026.7 1024.1 0.0
28/10:30pm 14.7 14.5 13.7 94 0.6 ENE 7 13 4 7 1026.9 1024.3 0.0
28/10:00pm 14.7 14.8 13.8 94 0.5 ENE 6 9 3 5 1027.1 1024.4 0.0
28/09:30pm 14.4 14.4 13.5 94 0.5 ENE 6 9 3 5 1027.2 1024.5 0.0
28/09:00pm 14.5 14.3 13.6 94 0.5 ENE 7 15 4 8 1026.9 1024.3 0.0
28/08:30pm 12.7 12.9 12.0 95 0.4 E 2 6 1 3 1026.8 1024.2 0.0
28/08:00pm 12.6 13.3 12.1 97 0.3 CALM 0 2 0 1 1026.6 1024.0 0.0
28/07:30pm 13.5 13.8 12.3 92 0.7 ENE 2 6 1 3 1026.4 1023.8 0.0
28/07:00pm 13.8 13.7 12.0 89 1.0 ENE 4 6 2 3 1026.1 1023.4 0.0
28/06:30pm 14.0 14.2 11.7 86 1.3 ENE 2 6 1 3 1025.9 1023.2 0.0
28/06:00pm 15.1 15.3 11.7 80 1.9 E 2 4 1 2 1025.7 1023.1 0.0
28/05:30pm 16.7 16.3 11.2 70 3.1 E 4 7 2 4 1025.5 1022.9 0.0
28/05:00pm 18.0 17.3 11.5 66 3.7 E 6 11 3 6 1025.3 1022.7 0.0
28/04:30pm 19.2 18.2 11.1 59 4.6 E 7 13 4 7 1025.1 1022.4 0.0
28/04:00pm 19.9 19.0 11.3 57 4.9 E 7 15 4 8 1025.1 1022.4 0.0
28/03:30pm 20.8 20.2 11.6 55 5.3 ENE 6 17 3 9 1025.0 1022.3 0.0
28/03:00pm 20.5 19.1 11.0 54 5.4 E 9 17 5 9 1025.0 1022.3 0.0
28/02:30pm 20.6 19.6 10.9 53 5.5 ESE 7 15 4 8 1025.0 1022.3 0.0
28/02:00pm 20.7 19.8 11.3 55 5.4 E 7 17 4 9 1025.1 1022.4 0.0
28/01:30pm 20.1 18.3 10.9 55 5.2 ENE 11 19 6 10 1025.2 1022.5 0.0
28/01:00pm 20.3 18.8 11.8 58 4.9 ENE 11 19 6 10 1025.5 1022.9 0.0
28/12:30pm 19.9 18.0 11.9 60 4.6 ENE 13 24 7 13 1025.9 1023.2 0.0
28/12:00pm 18.3 17.2 12.0 66 3.6 ENE 9 20 5 11 1026.2 1023.5 0.0
28/11:30am 18.4 17.0 12.3 67 3.5 ENE 11 19 6 10 1026.6 1024.0 0.0
28/11:00am 19.4 18.4 13.3 68 3.6 ENE 11 20 6 11 1027.1 1024.4 0.0
28/10:30am 18.4 17.9 13.8 74 2.7 ENE 9 20 5 11 1027.2 1024.5 0.0
28/10:00am 16.3 15.4 13.6 84 1.6 ENE 11 20 6 11 1027.5 1024.9 0.0
28/09:30am 16.5 15.9 13.6 83 1.7 ENE 9 19 5 10 1027.4 1024.8 0.0
28/09:00am 15.8 14.4 13.4 86 1.4 ENE 13 22 7 12 1027.2 1024.5 0.8
28/08:30am 15.2 14.7 13.7 91 0.9 ENE 9 19 5 10 1027.1 1024.4 0.8
28/08:00am 14.5 14.3 13.5 94 0.6 ENE 7 15 4 8 1026.6 1024.0 0.8
28/07:30am 14.2 13.9 13.3 94 0.5 ENE 7 17 4 9 1026.3 1023.7 0.8
28/07:00am 13.8 13.4 13.1 96 0.4 ENE 7 17 4 9 1026.0 1023.3 0.8
28/06:30am 13.7 13.3 13.0 96 0.4 ENE 7 13 4 7 1025.9 1023.2 0.8
28/06:00am 13.7 13.6 13.2 97 0.3 ENE 6 9 3 5 1025.7 1023.1 0.8
28/05:30am 13.8 13.5 13.3 97 0.3 ENE 7 17 4 9 1025.7 1023.1 0.8
28/05:00am 13.9 13.6 13.4 97 0.3 ENE 7 17 4 9 1025.6 1023.0 0.6
28/04:30am 13.9 13.9 13.6 98 0.2 E 6 9 3 5 1025.3 1022.7 0.4
28/04:00am 13.9 13.6 13.4 97 0.3 E 7 13 4 7 1025.1 1022.4 0.4
28/03:30am 13.8 14.1 13.3 97 0.3 E 4 9 2 5 1025.1 1022.4 0.4
28/03:00am 13.4 14.0 13.0 97 0.2 ENE 2 6 1 3 1025.2 1022.5 0.4
28/02:30am 13.4 13.6 12.9 97 0.3 ESE 4 6 2 3 1025.5 1022.9 0.4
28/02:00am 13.6 13.4 12.9 95 0.4 ESE 6 13 3 7 1026.0 1023.3 0.4
28/01:30am 13.9 14.2 13.4 97 0.3 E 4 7 2 4 1026.1 1023.4 0.4
28/01:00am 13.8 14.9 13.5 98 0.2 CALM 0 2 0 1 1026.4 1023.8 0.2
28/12:30am 13.7 14.3 13.2 97 0.3 ENE 2 7 1 4 1026.6 1024.0 0.0
28/12:00am 13.3 13.4 12.6 95 0.4 E 4 6 2 3 1026.7 1024.1 0.0
 
Date/Time
EST
Temp
°C
App
Temp
°C
Dew
Point
Rel
Hum
%
Delta-T
°C
Wind Press
QNH
hPa
Press
MSL
hPa
Rain
since 9 am
mm
Dir
 
Spd
km/h
Gust
km/h
Spd
kts
Gust
kts
27/11:30pm 13.4 13.5 12.7 95 0.4 ENE 4 7 2 4 1026.9 1024.3 0.0
27/11:00pm 14.0 13.6 13.1 94 0.5 E 7 13 4 7 1026.9 1024.3 0.0
27/10:30pm 14.2 13.9 13.2 94 0.6 E 7 13 4 7 1027.1 1024.4 0.0
27/10:00pm 14.6 14.5 13.4 92 0.7 E 6 13 3 7 1026.8 1024.2 0.0
27/09:30pm 14.6 14.3 13.2 91 0.8 E 7 15 4 8 1026.7 1024.1 0.0
27/09:00pm 14.1 13.9 12.9 92 0.7 E 6 11 3 6 1026.8 1024.2 0.0
27/08:30pm 14.2 14.1 13.2 94 0.6 E 6 13 3 7 1026.9 1024.3 0.0
27/08:00pm 13.7 13.8 12.6 93 0.6 E 4 6 2 3 1026.7 1024.1 0.0
27/07:30pm 13.3 12.8 12.2 93 0.6 E 6 13 3 7 1026.5 1023.9 0.0
27/07:00pm 12.9 13.0 11.6 92 0.7 E 2 6 1 3 1026.4 1023.8 0.0
27/06:30pm 13.6 13.8 11.8 89 1.0 ENE 2 4 1 2 1026.1 1023.4 0.0
27/06:00pm 14.7 14.9 11.7 82 1.7 E 2 6 1 3 1025.9 1023.2 0.0
27/05:30pm 15.8 15.1 11.3 74 2.5 E 6 15 3 8 1025.5 1022.9 0.0
27/05:00pm 17.2 16.4 10.9 66 3.5 ENE 6 9 3 5 1025.2 1022.5 0.0
27/04:30pm 18.0 16.1 10.5 61 4.2 E 11 20 6 11 1025.1 1022.4 0.0
27/04:00pm 18.0 17.0 11.1 64 3.9 ESE 7 19 4 10 1025.1 1022.4 0.0
27/03:30pm 18.3 16.8 10.4 60 4.4 E 9 17 5 9 1025.0 1022.3 0.0
27/03:00pm 19.4 17.8 10.1 55 5.2 E 9 17 5 9 1024.8 1022.1 0.0
27/02:30pm 19.4 17.8 10.1 55 5.2 E 9 20 5 11 1024.9 1022.2 0.0
27/02:00pm 19.9 17.8 9.6 51 5.7 E 11 24 6 13 1024.9 1022.2 0.0
27/01:30pm 19.1 17.0 9.7 54 5.2 ENE 11 24 6 13 1025.2 1022.5 0.0

Other Formats:

Comma delimited format used in spreadsheet applications
http://www.bom.gov.au/fwo/IDN60801/IDN60801.94553.axf

JavaScript Object Notation format (JSON) in row-major order
http://www.bom.gov.au/fwo/IDN60801/IDN60801.94553.json